Time;durP1;ratioP1;P1;durP2;ratioP2;P2;SDS_P1;SDS_P2;PMS_P1;PMS_P2;Temp;Humidity;BMP_temperature;BMP_pressure;BME280_temperature;BME280_humidity;BME280_pressure;Samples;Min_cycle;Max_cycle;Signal;HPM_P1;HPM_P2
2023/08/29 00:01:38;;;;;;;4.55;3.72;;;;;;;14.21;77.54;99993.38;10259713;28;20141;-80
2023/08/29 00:06:43;;;;;;;4.32;3.88;;;;;;;14.20;77.20;99984.38;10258644;28;20055;-78
2023/08/29 00:11:45;;;;;;;3.55;3.25;;;;;;;14.20;76.70;99987.09;10287728;28;20426;-78
2023/08/29 00:16:48;;;;;;;3.67;3.38;;;;;;;14.12;76.46;99973.53;10258210;28;20875;-79
2023/08/29 00:21:52;;;;;;;4.47;4.05;;;;;;;14.07;77.09;99960.50;10252901;28;20046;-78
2023/08/29 00:26:55;;;;;;;10.20;5.70;;;;;;;14.13;77.16;99959.03;10256263;28;20417;-80
2023/08/29 00:31:58;;;;;;;5.35;4.07;;;;;;;14.18;76.53;99964.81;10249781;28;20054;-81
2023/08/29 00:37:03;;;;;;;5.00;4.40;;;;;;;14.09;76.35;99965.75;10251151;28;20051;-78
2023/08/29 00:42:06;;;;;;;6.03;4.55;;;;;;;13.93;76.63;99952.94;10252663;28;20090;-79
2023/08/29 00:47:09;;;;;;;5.25;4.72;;;;;;;13.77;77.47;99956.38;10250485;28;20133;-79
2023/08/29 00:52:14;;;;;;;4.60;4.13;;;;;;;13.81;77.38;99948.81;10250912;28;20135;-77
2023/08/29 00:57:17;;;;;;;6.75;4.80;;;;;;;13.81;77.14;99955.06;10248695;28;20047;-80
2023/08/29 01:02:20;;;;;;;6.65;6.05;;;;;;;13.83;77.08;99960.31;10246994;28;21432;-77
2023/08/29 01:07:25;;;;;;;5.63;5.20;;;;;;;13.90;77.11;99977.56;10259643;28;20054;-77
2023/08/29 01:12:42;;;;;;;6.05;5.40;;;;;;;13.97;76.85;99992.16;10270974;28;20058;-78
2023/08/29 01:17:49;;;;;;;5.38;4.88;;;;;;;13.97;76.46;99980.50;10283791;28;20533;-78
2023/08/29 01:23:08;;;;;;;6.68;4.65;;;;;;;13.97;75.99;99986.75;10259429;28;20054;-79
2023/08/29 01:28:20;;;;;;;7.30;5.80;;;;;;;13.96;75.99;100000.41;10251721;28;20050;-79
2023/08/29 01:33:24;;;;;;;6.93;5.13;;;;;;;13.86;76.08;100012.13;10259929;28;20053;-79
2023/08/29 01:38:27;;;;;;;6.93;5.63;;;;;;;13.82;76.33;100008.06;10255258;28;20051;-79
2023/08/29 01:43:31;;;;;;;6.60;5.72;;;;;;;13.68;76.73;100000.47;10248719;28;20054;-79
2023/08/29 01:48:34;;;;;;;8.45;6.28;;;;;;;13.53;76.99;99999.34;10257088;28;20054;-80
2023/08/29 01:53:38;;;;;;;12.43;6.88;;;;;;;13.57;77.65;100015.03;10260500;28;20051;-79
2023/08/29 01:58:46;;;;;;;7.68;6.88;;;;;;;13.36;78.07;100036.91;10257522;28;20050;-78
2023/08/29 02:03:49;;;;;;;8.15;7.13;;;;;;;13.20;78.71;100037.53;10267824;28;20853;-79
2023/08/29 02:08:54;;;;;;;9.70;7.32;;;;;;;12.96;80.42;100034.53;10252822;28;20070;-79
2023/08/29 02:13:58;;;;;;;10.68;7.90;;;;;;;12.88;81.27;100021.78;10256343;28;20129;-80
2023/08/29 02:19:02;;;;;;;10.13;7.88;;;;;;;12.94;81.26;100028.44;10260580;28;20587;-78
2023/08/29 02:24:06;;;;;;;9.27;7.40;;;;;;;12.90;80.86;100032.44;10251872;28;20566;-79
2023/08/29 02:29:10;;;;;;;9.27;8.13;;;;;;;12.93;81.21;100026.75;10254674;28;20046;-80
2023/08/29 02:34:13;;;;;;;9.23;8.02;;;;;;;13.03;81.13;100022.16;10248026;28;21179;-79
2023/08/29 02:39:16;;;;;;;8.48;7.57;;;;;;;13.06;80.58;100008.38;10249532;28;20058;-79
2023/08/29 02:44:20;;;;;;;10.45;8.63;;;;;;;12.75;81.84;100002.41;10248197;28;20042;-78
2023/08/29 02:49:23;;;;;;;12.55;8.85;;;;;;;12.69;81.93;100008.38;10249255;28;20055;-79
2023/08/29 02:54:26;;;;;;;14.05;8.63;;;;;;;12.74;82.37;100000.72;10250411;28;20069;-78
2023/08/29 02:59:31;;;;;;;10.57;8.43;;;;;;;13.01;81.81;100006.13;10262749;28;20048;-79
2023/08/29 03:04:33;;;;;;;10.45;8.82;;;;;;;12.96;81.26;100013.81;10261943;28;21164;-79
2023/08/29 03:09:38;;;;;;;14.77;10.05;;;;;;;12.81;82.06;100028.78;10257902;28;21172;-79
2023/08/29 03:14:43;;;;;;;11.23;9.98;;;;;;;12.76;82.11;100009.50;10264631;28;20058;-80
2023/08/29 03:19:47;;;;;;;10.52;9.30;;;;;;;12.55;82.94;100024.03;10250706;28;20062;-81
2023/08/29 03:24:50;;;;;;;14.05;10.70;;;;;;;12.54;83.58;100026.88;10260407;28;20216;-78
2023/08/29 03:29:55;;;;;;;13.10;10.98;;;;;;;12.55;83.72;100017.78;10260376;28;20181;-80
2023/08/29 03:34:58;;;;;;;15.27;9.50;;;;;;;12.71;82.83;100015.34;10256569;28;20051;-80
2023/08/29 03:40:02;;;;;;;14.02;10.75;;;;;;;12.82;82.28;99998.13;10258421;28;20722;-79
2023/08/29 03:45:08;;;;;;;16.40;10.27;;;;;;;12.96;81.87;99999.47;10266173;28;20100;-78
2023/08/29 03:50:11;;;;;;;13.43;10.13;;;;;;;12.88;81.49;99991.28;10255571;28;20152;-79
2023/08/29 03:55:14;;;;;;;12.60;10.80;;;;;;;12.60;82.71;99984.03;10257359;28;20046;-78
2023/08/29 04:00:18;;;;;;;13.10;10.63;;;;;;;12.74;82.89;99981.84;10261889;28;20062;-79
2023/08/29 04:05:21;;;;;;;13.77;9.60;;;;;;;13.05;82.07;99958.13;10266347;28;20062;-80
2023/08/29 04:10:25;;;;;;;16.55;10.60;;;;;;;13.15;81.25;99960.78;10259276;28;20054;-82
2023/08/29 04:15:29;;;;;;;10.93;9.48;;;;;;;13.22;80.68;99953.81;10257426;28;20050;-78
2023/08/29 04:20:32;;;;;;;12.23;9.85;;;;;;;13.19;80.22;99941.47;10261360;28;20517;-78
2023/08/29 04:25:35;;;;;;;13.93;10.90;;;;;;;13.07;80.05;99939.97;10258104;28;20046;-80
2023/08/29 04:30:39;;;;;;;14.85;11.30;;;;;;;12.99;80.42;99940.72;10257127;28;20538;-80
2023/08/29 04:35:42;;;;;;;14.05;12.15;;;;;;;12.92;80.99;99945.03;10249565;28;20049;-79
2023/08/29 04:40:45;;;;;;;13.07;11.73;;;;;;;12.99;81.22;99945.25;10266454;28;20066;-80
2023/08/29 04:45:50;;;;;;;13.63;11.20;;;;;;;13.02;81.12;99948.50;10266273;28;20054;-80
2023/08/29 04:50:53;;;;;;;14.00;11.48;;;;;;;13.16;81.01;99949.00;10259434;28;20061;-80
2023/08/29 04:56:00;;;;;;;16.02;11.35;;;;;;;13.32;81.01;99945.63;10259650;28;20058;-79
2023/08/29 05:01:08;;;;;;;15.15;11.55;;;;;;;13.31;80.64;99958.28;10259271;28;20058;-79
2023/08/29 05:06:11;;;;;;;16.75;11.27;;;;;;;13.33;80.67;99953.56;10253628;28;20043;-79
2023/08/29 05:11:14;;;;;;;12.43;11.13;;;;;;;13.42;80.34;99941.88;10244852;28;20047;-81
2023/08/29 05:16:18;;;;;;;12.80;10.48;;;;;;;13.22;80.35;99956.50;10260391;28;20043;-80
2023/08/29 05:21:21;;;;;;;14.38;11.68;;;;;;;13.17;80.16;99950.72;10264920;28;20114;-79
2023/08/29 05:26:25;;;;;;;15.98;11.10;;;;;;;12.90;82.01;99951.56;10280915;28;20121;-79
2023/08/29 05:31:29;;;;;;;15.25;11.02;;;;;;;13.10;81.15;99955.00;10247629;28;20050;-79
2023/08/29 05:36:32;;;;;;;14.90;10.95;;;;;;;13.21;81.38;99952.09;10256752;28;20046;-79
2023/08/29 05:41:35;;;;;;;4.30;2.97;;;;;;;13.66;81.30;99951.22;10270148;28;20043;-79
2023/08/29 05:46:39;;;;;;;8.45;4.50;;;;;;;14.67;78.50;99946.19;10252698;28;20533;-79
2023/08/29 05:51:42;;;;;;;8.93;4.03;;;;;;;15.08;75.67;99945.53;10253630;28;20053;-81
2023/08/29 05:56:45;;;;;;;8.45;3.85;;;;;;;15.33;73.57;99955.41;10253377;28;21211;-80
2023/08/29 06:01:49;;;;;;;4.50;4.05;;;;;;;15.50;72.72;99950.91;10241751;28;20070;-82
2023/08/29 06:06:52;;;;;;;7.28;4.28;;;;;;;15.39;71.77;99954.78;10254387;28;20062;-79
2023/08/29 06:11:55;;;;;;;4.45;3.70;;;;;;;15.09;72.75;99948.06;10257366;28;20429;-79
2023/08/29 06:16:59;;;;;;;5.57;5.07;;;;;;;15.19;72.84;99953.31;10283008;28;20051;-80
2023/08/29 06:22:03;;;;;;;6.35;4.72;;;;;;;15.12;72.88;99944.19;10274099;28;20106;-79
2023/08/29 06:27:06;;;;;;;10.50;4.63;;;;;;;15.28;72.37;99949.66;10253166;28;20525;-79
2023/08/29 06:32:10;;;;;;;9.93;7.97;;;;;;;15.07;72.24;99951.94;10255613;28;20062;-81
2023/08/29 06:37:13;;;;;;;11.20;9.98;;;;;;;14.66;74.51;99955.31;10265312;28;20065;-80
2023/08/29 06:42:16;;;;;;;10.70;9.48;;;;;;;14.48;75.72;99955.41;10250661;28;20055;-80
2023/08/29 06:47:20;;;;;;;12.20;8.52;;;;;;;14.50;76.73;99960.66;10259065;28;20050;-82
2023/08/29 06:52:23;;;;;;;10.35;9.25;;;;;;;14.59;76.60;99955.13;10262530;28;20062;-81
2023/08/29 06:57:27;;;;;;;13.10;9.68;;;;;;;14.75;76.47;99959.75;10255915;28;20051;-80
2023/08/29 07:02:31;;;;;;;10.68;9.57;;;;;;;14.68;75.43;99955.19;10253807;28;20054;-83
2023/08/29 07:07:35;;;;;;;12.77;8.88;;;;;;;14.83;75.62;99956.25;10251526;28;21060;-82
2023/08/29 07:12:39;;;;;;;11.23;9.60;;;;;;;14.81;75.63;99959.13;10276800;28;20055;-80
2023/08/29 07:17:43;;;;;;;15.25;9.85;;;;;;;15.04;75.43;99961.25;10262840;28;20055;-78
2023/08/29 07:22:46;;;;;;;12.13;9.57;;;;;;;15.15;75.09;99957.38;10255077;28;20062;-80
2023/08/29 07:27:49;;;;;;;12.68;9.80;;;;;;;15.45;75.21;99959.53;10256207;28;20055;-79
2023/08/29 07:32:53;;;;;;;14.65;9.68;;;;;;;15.74;74.29;99962.75;10262819;28;20054;-78
2023/08/29 07:37:56;;;;;;;11.80;10.55;;;;;;;15.90;73.12;99976.31;10262330;28;20140;-81
2023/08/29 07:42:59;;;;;;;23.77;13.00;;;;;;;16.08;72.58;99977.00;10261104;28;20058;-80
2023/08/29 07:48:04;;;;;;;11.23;9.82;;;;;;;16.34;72.01;99976.81;10258457;28;20697;-79
2023/08/29 07:53:07;;;;;;;14.98;10.45;;;;;;;16.43;71.29;99980.38;10254741;28;20130;-78
2023/08/29 07:58:10;;;;;;;10.55;9.45;;;;;;;16.45;70.46;99974.78;10260985;28;20042;-80
2023/08/29 08:03:14;;;;;;;11.77;8.88;;;;;;;16.83;70.44;99980.44;10256630;28;20059;-79
2023/08/29 08:08:17;;;;;;;11.93;9.18;;;;;;;17.10;69.70;99990.84;10255768;28;20057;-79
2023/08/29 08:13:20;;;;;;;9.73;7.93;;;;;;;17.22;68.33;99991.31;10255222;28;20043;-78
2023/08/29 08:18:25;;;;;;;11.57;8.68;;;;;;;17.05;68.42;99995.94;10258091;28;20097;-78
2023/08/29 08:23:27;;;;;;;8.93;8.02;;;;;;;17.19;68.56;99994.38;10254310;28;20782;-78
2023/08/29 08:28:30;;;;;;;10.73;7.60;;;;;;;17.39;68.30;99995.66;10260275;28;20050;-78
2023/08/29 08:33:35;;;;;;;9.43;7.95;;;;;;;17.38;66.70;100003.97;10251849;28;20063;-78
2023/08/29 08:38:38;;;;;;;12.45;8.32;;;;;;;17.37;66.84;100013.97;10254953;28;20635;-79
2023/08/29 08:43:43;;;;;;;12.20;8.20;;;;;;;16.89;68.17;100015.81;10250863;28;20060;-81
2023/08/29 08:48:47;;;;;;;9.05;7.07;;;;;;;17.36;68.44;100012.31;10244424;28;20059;-79
2023/08/29 08:53:51;;;;;;;12.82;7.72;;;;;;;17.35;67.07;100010.59;10255561;28;20053;-81
2023/08/29 08:58:55;;;;;;;10.20;6.95;;;;;;;17.38;66.19;100012.09;10253035;28;20050;-80
2023/08/29 09:03:59;;;;;;;9.68;6.15;;;;;;;17.76;66.39;100010.34;10287093;28;20134;-80
2023/08/29 09:09:19;;;;;;;8.48;6.20;;;;;;;17.95;65.24;100006.31;10250749;28;21188;-79
2023/08/29 09:14:23;;;;;;;9.73;7.03;;;;;;;18.13;64.58;100019.63;10245175;28;20054;-79
2023/08/29 09:19:33;;;;;;;12.73;7.47;;;;;;;18.22;64.72;100014.97;10251806;28;20058;-81
2023/08/29 09:24:36;;;;;;;7.97;7.03;;;;;;;18.55;62.86;100020.94;10241917;28;20058;-79
2023/08/29 09:29:39;;;;;;;8.70;7.55;;;;;;;18.84;62.40;100009.28;10248227;28;20419;-79
2023/08/29 09:34:43;;;;;;;7.43;6.25;;;;;;;19.23;61.65;100025.28;10249024;28;20050;-77
2023/08/29 09:39:47;;;;;;;6.90;5.47;;;;;;;19.29;60.29;100018.25;10243885;28;21374;-76
2023/08/29 09:44:50;;;;;;;7.63;4.80;;;;;;;19.62;59.16;100023.28;10252910;28;20051;-76
2023/08/29 09:49:54;;;;;;;7.97;4.93;;;;;;;19.80;58.70;100020.09;10251467;28;20438;-77
2023/08/29 09:55:01;;;;;;;6.63;4.57;;;;;;;19.81;58.86;100014.47;10250101;28;20061;-76
2023/08/29 10:00:04;;;;;;;4.38;3.85;;;;;;;20.15;57.91;100021.06;10248410;28;20051;-76
2023/08/29 10:05:12;;;;;;;3.83;3.35;;;;;;;19.49;56.45;100007.59;10251751;28;20057;-77
2023/08/29 10:10:15;;;;;;;3.30;2.60;;;;;;;20.10;57.62;100002.59;10256299;28;20060;-77
2023/08/29 10:15:19;;;;;;;4.93;3.03;;;;;;;20.77;53.52;99994.94;10258117;28;20399;-78
2023/08/29 10:20:25;;;;;;;3.20;2.55;;;;;;;20.37;53.44;99986.47;10255585;28;20058;-77
2023/08/29 10:25:28;;;;;;;3.17;2.15;;;;;;;20.78;53.45;99982.97;10257313;28;20054;-77
2023/08/29 10:30:33;;;;;;;2.22;1.58;;;;;;;20.63;53.41;99977.66;10250936;28;20054;-79
2023/08/29 10:35:37;;;;;;;4.40;1.48;;;;;;;20.56;53.23;99987.66;10251273;28;20181;-78
2023/08/29 10:40:40;;;;;;;3.10;1.30;;;;;;;20.49;53.09;99984.06;10250734;28;20431;-77
2023/08/29 10:45:47;;;;;;;2.25;1.00;;;;;;;20.52;52.34;99979.03;10255907;28;20061;-78
2023/08/29 10:51:11;;;;;;;3.15;1.20;;;;;;;20.66;52.56;99977.22;10253803;28;20055;-80
2023/08/29 10:56:17;;;;;;;3.05;1.50;;;;;;;20.81;52.29;99971.66;10252682;28;20050;-77
2023/08/29 11:01:31;;;;;;;3.80;1.25;;;;;;;21.06;50.55;99969.28;10267891;28;20062;-77
2023/08/29 11:06:55;;;;;;;3.10;1.70;;;;;;;21.35;49.20;99965.41;10249426;28;20818;-77
2023/08/29 11:12:08;;;;;;;1.85;1.05;;;;;;;21.92;48.51;99951.47;10249672;28;20077;-77
2023/08/29 11:17:12;;;;;;;3.38;1.40;;;;;;;21.50;48.97;99961.66;10258893;28;20080;-76
2023/08/29 11:22:17;;;;;;;2.55;1.77;;;;;;;20.58;50.12;99950.13;10261321;28;20395;-77
2023/08/29 11:27:20;;;;;;;3.22;1.83;;;;;;;20.30;50.58;99955.56;10258052;28;20058;-78
2023/08/29 11:32:23;;;;;;;3.85;1.77;;;;;;;21.57;48.82;99940.66;10253124;28;20051;-76
2023/08/29 11:37:30;;;;;;;2.28;1.35;;;;;;;22.32;46.73;99942.22;10250528;28;20057;-78
2023/08/29 11:42:33;;;;;;;3.50;1.77;;;;;;;22.71;47.28;99936.91;10245186;28;20039;-77
2023/08/29 11:47:56;;;;;;;1.42;1.25;;;;;;;22.33;47.96;99932.94;10250489;28;20149;-79
2023/08/29 11:53:01;;;;;;;4.32;1.40;;;;;;;22.27;48.47;99939.28;10252787;28;20047;-77
2023/08/29 11:58:05;;;;;;;2.22;1.30;;;;;;;21.22;48.68;99935.31;10243891;28;20064;-77
2023/08/29 12:03:08;;;;;;;2.25;1.45;;;;;;;21.34;50.20;99930.13;10252616;28;20062;-76
2023/08/29 12:08:13;;;;;;;1.45;1.20;;;;;;;21.79;47.96;99927.69;10247739;28;21341;-76
2023/08/29 12:13:15;;;;;;;2.75;1.58;;;;;;;21.68;48.04;99913.56;10239941;28;20585;-77
2023/08/29 12:18:23;;;;;;;2.50;1.45;;;;;;;20.75;51.63;99915.16;10246155;28;20042;-76
2023/08/29 12:23:28;;;;;;;2.75;1.20;;;;;;;21.76;48.59;99915.28;10247726;28;20051;-77
2023/08/29 12:28:31;;;;;;;2.70;1.30;;;;;;;21.34;49.17;99917.31;10243291;28;20043;-76
2023/08/29 12:33:35;;;;;;;2.33;1.45;;;;;;;22.26;47.19;99906.63;10248133;28;20054;-77
2023/08/29 12:38:39;;;;;;;2.85;1.33;;;;;;;23.31;45.86;99909.28;10237692;28;20043;-77
2023/08/29 12:43:42;;;;;;;3.65;2.13;;;;;;;23.96;44.18;99909.06;10258338;28;20063;-77
2023/08/29 12:48:45;;;;;;;4.45;1.98;;;;;;;24.49;44.29;99897.59;10248412;28;20530;-77
2023/08/29 12:53:49;;;;;;;1.80;1.67;;;;;;;24.60;43.46;99890.50;10248920;28;20080;-77
2023/08/29 12:58:53;;;;;;;2.05;1.20;;;;;;;26.02;38.90;99890.00;10247184;28;20047;-76
2023/08/29 13:03:56;;;;;;;3.65;1.52;;;;;;;25.63;39.39;99876.69;10247910;28;20525;-77
2023/08/29 13:09:00;;;;;;;1.45;1.35;;;;;;;25.77;40.34;99880.06;10254335;28;20058;-78
2023/08/29 13:14:04;;;;;;;2.08;1.25;;;;;;;26.03;38.48;99873.28;10248527;28;20047;-77
2023/08/29 13:19:06;;;;;;;1.98;1.00;;;;;;;25.60;41.31;99859.78;10241617;28;20101;-77
2023/08/29 13:24:11;;;;;;;1.85;1.20;;;;;;;24.98;40.45;99857.28;10244567;28;20053;-77
2023/08/29 13:29:14;;;;;;;1.73;0.95;;;;;;;24.74;41.70;99859.09;10247093;28;20499;-79
2023/08/29 13:34:17;;;;;;;2.55;1.00;;;;;;;25.27;39.45;99838.31;10250268;28;20054;-77
2023/08/29 13:39:21;;;;;;;1.25;1.00;;;;;;;26.05;38.74;99846.34;10246878;28;20047;-77
2023/08/29 13:44:24;;;;;;;1.33;1.05;;;;;;;26.25;38.00;99836.91;10244290;28;20061;-78
2023/08/29 13:49:27;;;;;;;1.33;0.85;;;;;;;26.19;38.46;99832.31;10248025;28;20656;-76
2023/08/29 13:54:31;;;;;;;0.75;0.50;;;;;;;25.75;37.07;99831.84;10243712;28;20053;-78
2023/08/29 13:59:34;;;;;;;0.57;0.50;;;;;;;26.04;35.44;99833.66;10240280;28;20101;-77
2023/08/29 14:04:37;;;;;;;0.90;0.90;;;;;;;25.39;38.25;99833.69;10239543;28;20501;-78
2023/08/29 14:09:41;;;;;;;0.80;0.68;;;;;;;26.15;35.75;99825.63;10241565;28;20046;-79
2023/08/29 14:14:44;;;;;;;0.93;0.70;;;;;;;25.55;36.31;99829.41;10242343;28;20055;-79
2023/08/29 14:19:49;;;;;;;1.20;0.82;;;;;;;24.87;37.93;99825.94;10244106;28;20058;-80
2023/08/29 14:24:53;;;;;;;3.03;0.50;;;;;;;26.37;35.36;99817.63;10243333;28;20057;-77
2023/08/29 14:29:56;;;;;;;0.77;0.73;;;;;;;26.86;36.90;99818.09;10250082;28;20051;-79
2023/08/29 14:34:59;;;;;;;0.80;0.80;;;;;;;27.04;34.88;99817.91;10258147;28;20460;-79
2023/08/29 14:40:04;;;;;;;2.22;1.05;;;;;;;25.46;35.43;99823.44;10246370;28;20042;-77
2023/08/29 14:45:08;;;;;;;0.77;0.63;;;;;;;25.08;37.46;99818.31;10250016;28;20055;-79
2023/08/29 14:50:12;;;;;;;0.85;0.80;;;;;;;25.19;37.28;99825.75;10248047;28;20054;-79
2023/08/29 14:55:20;;;;;;;1.63;0.88;;;;;;;23.34;39.77;99834.84;10253979;28;20145;-78
2023/08/29 15:00:24;;;;;;;0.75;0.70;;;;;;;23.66;39.22;99817.31;10257671;28;20082;-78
2023/08/29 15:05:29;;;;;;;1.13;0.80;;;;;;;24.64;38.26;99823.09;10261526;28;20074;-77
2023/08/29 15:10:33;;;;;;;2.25;0.80;;;;;;;22.98;40.41;99830.81;10256336;28;20568;-79
2023/08/29 15:15:38;;;;;;;1.33;0.80;;;;;;;21.55;42.79;99828.84;10255981;28;20679;-79
2023/08/29 15:20:42;;;;;;;0.60;0.60;;;;;;;21.15;43.92;99828.81;10258611;28;20050;-79
2023/08/29 15:25:46;;;;;;;2.92;1.00;;;;;;;20.64;45.78;99831.97;10250925;28;20653;-78
2023/08/29 15:30:52;;;;;;;1.02;0.88;;;;;;;20.41;46.52;99826.84;10252866;28;21198;-77
2023/08/29 15:35:56;;;;;;;3.63;2.00;;;;;;;20.28;47.58;99841.22;10255763;28;20394;-79
2023/08/29 15:41:01;;;;;;;3.20;2.03;;;;;;;20.28;48.41;99829.47;10254445;28;20841;-75
2023/08/29 15:46:07;;;;;;;2.88;1.60;;;;;;;21.37;46.30;99832.19;10251799;28;20065;-78
2023/08/29 15:51:10;;;;;;;6.07;1.50;;;;;;;22.67;44.07;99821.50;10253525;28;20051;-77
2023/08/29 15:56:14;;;;;;;1.35;1.15;;;;;;;23.43;41.32;99815.19;10252318;28;20101;-77
2023/08/29 16:01:17;;;;;;;1.15;0.80;;;;;;;23.51;39.13;99815.97;10245194;28;20077;-77
2023/08/29 16:06:26;;;;;;;1.20;0.82;;;;;;;22.49;40.72;99816.75;10300751;28;20095;-77
2023/08/29 16:11:31;;;;;;;1.75;0.80;;;;;;;23.23;40.04;99813.63;10295318;28;20078;-77
2023/08/29 16:16:34;;;;;;;2.80;0.80;;;;;;;23.32;40.46;99813.16;10269577;28;20050;-78
2023/08/29 16:21:36;;;;;;;1.10;0.80;;;;;;;22.22;43.53;99815.13;10256753;28;20050;-78
2023/08/29 16:26:41;;;;;;;1.40;1.00;;;;;;;20.92;47.04;99829.13;10253175;28;20063;-77
2023/08/29 16:31:44;;;;;;;2.38;1.33;;;;;;;19.97;49.48;99816.28;10251322;28;20549;-78
2023/08/29 16:36:46;;;;;;;3.35;1.70;;;;;;;19.54;51.63;99816.34;10250066;28;20082;-78
2023/08/29 16:41:51;;;;;;;1.77;1.50;;;;;;;18.92;53.67;99817.81;10245352;28;21148;-77
2023/08/29 16:46:54;;;;;;;1.95;1.67;;;;;;;19.05;54.48;99817.13;10250358;28;20043;-76
2023/08/29 16:51:57;;;;;;;2.72;1.73;;;;;;;18.63;55.75;99808.69;10243428;28;20051;-78
2023/08/29 16:57:02;;;;;;;2.90;2.00;;;;;;;18.51;56.40;99813.78;10237656;28;20559;-77
2023/08/29 17:02:06;;;;;;;2.75;2.35;;;;;;;18.50;57.75;99811.25;10244097;28;20141;-77
2023/08/29 17:07:10;;;;;;;2.67;2.47;;;;;;;19.02;56.39;99810.19;10247887;28;21597;-78
2023/08/29 17:12:18;;;;;;;4.05;2.28;;;;;;;18.57;58.41;99820.34;10251876;28;20716;-77
2023/08/29 17:17:21;;;;;;;5.40;3.00;;;;;;;18.89;57.00;99820.94;10250355;28;20043;-76
2023/08/29 17:22:25;;;;;;;3.03;2.83;;;;;;;18.39;58.93;99809.84;10253039;28;20050;-78
2023/08/29 17:27:29;;;;;;;4.95;2.72;;;;;;;18.16;60.08;99820.84;10252971;28;20098;-78
2023/08/29 17:32:32;;;;;;;3.80;2.58;;;;;;;18.09;61.28;99822.59;10249296;28;20054;-77
2023/08/29 17:37:40;;;;;;;4.82;2.50;;;;;;;18.06;61.54;99820.28;10250052;28;20047;-78
2023/08/29 17:42:44;;;;;;;3.78;3.45;;;;;;;17.88;61.96;99804.28;10242611;28;20566;-78
2023/08/29 17:47:47;;;;;;;4.13;2.80;;;;;;;17.98;62.33;99812.22;10245197;28;20532;-78
2023/08/29 17:52:50;;;;;;;5.95;3.00;;;;;;;18.01;62.65;99814.53;10246969;28;20125;-78
2023/08/29 17:57:54;;;;;;;4.22;3.15;;;;;;;17.90;62.77;99815.81;10242107;28;20063;-78
2023/08/29 18:02:57;;;;;;;3.90;3.10;;;;;;;17.85;63.55;99821.84;10249261;28;20055;-77
2023/08/29 18:08:00;;;;;;;4.28;3.67;;;;;;;17.61;63.76;99817.47;10237569;28;20051;-78
2023/08/29 18:13:05;;;;;;;4.40;3.45;;;;;;;17.42;65.01;99829.69;10232860;28;20058;-77
2023/08/29 18:18:18;;;;;;;4.18;3.65;;;;;;;17.19;65.44;99826.97;10248667;28;20043;-77
2023/08/29 18:23:22;;;;;;;6.47;3.58;;;;;;;16.87;66.43;99827.19;10246756;28;20047;-78
2023/08/29 18:28:26;;;;;;;4.15;3.30;;;;;;;16.66;67.69;99823.22;10248226;28;20054;-79
2023/08/29 18:33:29;;;;;;;5.05;3.80;;;;;;;16.58;67.44;99815.97;10252665;28;20058;-79
2023/08/29 18:38:33;;;;;;;4.97;4.50;;;;;;;16.33;67.70;99815.22;10259655;28;20050;-80
2023/08/29 18:43:38;;;;;;;5.93;5.13;;;;;;;16.40;68.00;99809.09;10276893;28;20042;-81
2023/08/29 18:48:41;;;;;;;5.40;4.57;;;;;;;16.44;67.71;99813.16;10265356;28;20302;-80
2023/08/29 18:53:44;;;;;;;6.57;4.25;;;;;;;16.43;67.52;99809.63;10262511;28;20066;-81
2023/08/29 18:58:48;;;;;;;4.13;3.83;;;;;;;16.33;68.17;99804.38;10258732;28;20051;-80
2023/08/29 19:03:51;;;;;;;4.82;3.60;;;;;;;16.17;68.59;99820.69;10276952;28;20055;-79
2023/08/29 19:08:54;;;;;;;6.70;4.65;;;;;;;16.14;68.12;99816.44;10259223;28;20066;-84
2023/08/29 19:13:58;;;;;;;8.48;5.00;;;;;;;16.05;68.56;99813.97;10270155;28;20051;-80
2023/08/29 19:19:03;;;;;;;7.50;4.82;;;;;;;16.04;69.06;99814.97;10283756;28;20050;-82
2023/08/29 19:24:07;;;;;;;6.78;4.90;;;;;;;16.05;68.95;99812.09;10271227;28;20659;-83
2023/08/29 19:29:11;;;;;;;6.05;4.63;;;;;;;15.97;69.02;99808.56;10278574;28;20050;-79
2023/08/29 19:34:14;;;;;;;5.07;4.57;;;;;;;15.96;68.99;99812.28;10267429;28;20502;-79
2023/08/29 19:39:17;;;;;;;7.50;4.70;;;;;;;15.84;69.06;99809.09;10267992;28;20267;-80
2023/08/29 19:44:22;;;;;;;4.20;3.90;;;;;;;15.68;70.16;99816.22;10269271;28;21147;-79
2023/08/29 19:49:26;;;;;;;5.07;4.60;;;;;;;15.72;69.73;99813.19;10260639;28;20781;-82
2023/08/29 19:54:29;;;;;;;5.55;4.13;;;;;;;15.48;70.38;99801.34;10259112;28;20043;-82
2023/08/29 19:59:35;;;;;;;5.88;4.32;;;;;;;15.41;70.70;99809.31;10272185;28;20053;-79
2023/08/29 20:04:38;;;;;;;7.57;4.55;;;;;;;15.23;71.56;99822.13;10272198;28;20650;-81
2023/08/29 20:09:40;;;;;;;6.13;4.80;;;;;;;15.04;72.28;99817.91;10263413;28;20054;-79
2023/08/29 20:14:45;;;;;;;6.25;5.57;;;;;;;15.17;71.49;99810.13;10271350;28;20051;-81
2023/08/29 20:19:48;;;;;;;5.72;5.10;;;;;;;15.39;70.95;99805.94;10271342;28;20057;-80
2023/08/29 20:24:51;;;;;;;6.85;4.90;;;;;;;15.55;70.12;99805.09;10258397;28;20101;-79
2023/08/29 20:29:55;;;;;;;7.03;5.03;;;;;;;15.70;70.23;99802.50;10252636;28;20082;-79
2023/08/29 20:34:58;;;;;;;5.40;4.90;;;;;;;15.70;69.72;99808.78;10251937;28;20062;-78
2023/08/29 20:40:01;;;;;;;6.80;5.20;;;;;;;15.70;69.72;99814.19;10247614;28;20062;-79
2023/08/29 20:45:06;;;;;;;7.03;5.90;;;;;;;15.26;70.85;99811.81;10268006;28;20188;-80
2023/08/29 20:50:11;;;;;;;8.35;5.63;;;;;;;15.11;71.51;99810.81;10253172;28;20053;-78
2023/08/29 20:55:14;;;;;;;7.43;5.18;;;;;;;15.08;72.09;99812.97;10259342;28;20599;-78
2023/08/29 21:00:31;;;;;;;7.95;5.30;;;;;;;15.33;71.78;99809.28;10254516;28;20047;-78
2023/08/29 21:05:35;;;;;;;6.70;5.78;;;;;;;15.41;71.08;99801.22;10280165;28;20049;-79
2023/08/29 21:10:38;;;;;;;6.80;5.30;;;;;;;15.25;70.88;99799.31;10279482;28;20046;-78
2023/08/29 21:15:43;;;;;;;6.82;5.07;;;;;;;15.21;71.29;99800.66;10258450;28;20750;-79
2023/08/29 21:20:50;;;;;;;10.30;5.43;;;;;;;15.24;71.23;99805.72;10259733;28;20053;-83
2023/08/29 21:25:54;;;;;;;5.63;4.93;;;;;;;15.26;71.04;99795.59;10260446;28;20057;-79
2023/08/29 21:30:58;;;;;;;5.43;4.28;;;;;;;15.21;70.95;99795.25;10263991;28;20434;-81
2023/08/29 21:36:01;;;;;;;5.53;4.53;;;;;;;15.14;71.38;99788.84;10252401;28;20059;-78
2023/08/29 21:41:05;;;;;;;4.50;4.10;;;;;;;15.16;71.35;99789.47;10263481;28;20059;-78
2023/08/29 21:46:09;;;;;;;6.22;4.57;;;;;;;15.08;71.71;99794.88;10257531;28;21138;-78
2023/08/29 21:51:15;;;;;;;6.00;4.10;;;;;;;14.99;71.56;99787.78;10258517;28;21064;-78
2023/08/29 21:56:19;;;;;;;5.18;4.45;;;;;;;14.96;71.44;99796.25;10257536;28;20043;-79
2023/08/29 22:01:23;;;;;;;5.47;4.00;;;;;;;14.95;71.28;99783.75;10266905;28;20178;-79
2023/08/29 22:06:26;;;;;;;5.10;4.03;;;;;;;14.87;71.23;99781.88;10262682;28;20437;-79
2023/08/29 22:11:30;;;;;;;7.47;4.78;;;;;;;14.80;71.33;99775.44;10255987;28;20576;-79
2023/08/29 22:16:34;;;;;;;4.15;3.75;;;;;;;14.78;71.62;99769.34;10253531;28;20055;-78
2023/08/29 22:21:37;;;;;;;4.05;3.72;;;;;;;14.71;71.65;99761.06;10254264;28;20055;-79
2023/08/29 22:26:40;;;;;;;4.75;4.35;;;;;;;14.65;71.42;99759.03;10256419;28;20070;-80
2023/08/29 22:31:44;;;;;;;4.57;4.20;;;;;;;14.58;71.97;99760.69;10258534;28;20514;-79
2023/08/29 22:36:47;;;;;;;5.80;4.05;;;;;;;14.58;71.69;99760.69;10254247;28;20058;-78
2023/08/29 22:41:50;;;;;;;5.07;4.03;;;;;;;14.48;71.56;99760.84;10252252;28;20515;-82
2023/08/29 22:46:54;;;;;;;4.30;3.90;;;;;;;14.36;71.95;99756.72;10253014;28;20050;-79
2023/08/29 22:51:57;;;;;;;7.25;5.45;;;;;;;14.30;72.45;99743.88;10257204;28;21291;-79
2023/08/29 22:57:00;;;;;;;7.07;5.18;;;;;;;14.20;72.30;99744.00;10248156;28;20195;-81
2023/08/29 23:02:05;;;;;;;7.05;6.15;;;;;;;14.10;73.02;99740.59;10256562;28;20043;-78
2023/08/29 23:07:09;;;;;;;8.68;6.70;;;;;;;13.99;73.80;99736.34;10243889;28;20050;-79
2023/08/29 23:12:12;;;;;;;8.38;6.78;;;;;;;13.92;74.51;99736.13;10250208;28;20047;-78
2023/08/29 23:17:16;;;;;;;7.82;6.47;;;;;;;14.02;74.87;99727.91;10264197;28;20054;-80
2023/08/29 23:22:19;;;;;;;9.30;8.27;;;;;;;14.09;74.91;99733.50;10260056;28;20051;-80
2023/08/29 23:27:22;;;;;;;8.98;7.32;;;;;;;14.04;74.65;99731.31;10261836;28;20043;-78